Tetide — IVTN — position and weather

sailwx.info

Track history (hours):
 
Tides and Currents Weather Stations Pressure Air Temp Water Temp Dewpoint Dewpoint Depression Visibility Wind Speed Wind Dir Waves Ship Positions

Tetide

Last reported at 2016-Jul-24 22:06 UTC. Time now 2016-Jul-25 08:10 UTC.
Position N 41°15' E 013°37'.

Length 70 m; draft 3.6 m.

Type: Passenger vessel. MMSI: 247043100.

Date/timePositionNaut miles runAvg speedWind from/ knotsBaromVisibWave heightAir tempDewpointWater temp
2016-Jul-24 22:06N 41°15' E 013°37'0 0.0
2016-Jul-24 20:33N 41°15' E 013°37'0 0.0
2016-Jul-24 17:29N 41°15' E 013°37'1314.0
2016-Jul-24 16:34N 41°03' E 013°32'1514.9
2016-Jul-24 15:34N 40°48' E 013°26'1 0.4
2016-Jul-24 14:22N 40°48' E 013°26'1113.8
2016-Jul-24 13:34N 40°59' E 013°30'14 6.8
2016-Jul-24 11:33N 41°12' E 013°35'1914.6
2016-Jul-24 10:16N 41°02' E 013°14'1014.7
2016-Jul-24 09:33N 40°56' E 013°02'30 9.3
2016-Jul-24 06:16N 41°13' E 013°36'3 1.6
2016-Jul-24 04:34N 41°15' E 013°37'0 0.0
2016-Jul-24 03:34N 41°15' E 013°37'0 0.0
2016-Jul-24 02:33N 41°15' E 013°37'0 0.0
2016-Jul-23 22:11N 41°15' E 013°37'0 0.0
2016-Jul-23 21:34N 41°15' E 013°37'0 0.0
2016-Jul-23 20:33N 41°15' E 013°37'0 0.0
2016-Jul-23 19:32N 41°15' E 013°37'0 0.0
2016-Jul-23 18:33N 41°15' E 013°37'0 0.0
2016-Jul-23 17:33N 41°15' E 013°37'1313.0
2016-Jul-23 16:33N 41°03' E 013°32'1515.0
2016-Jul-23 15:34N 40°48' E 013°26'1 0.5
2016-Jul-23 14:33N 40°48' E 013°26'1211.9
2016-Jul-23 13:33N 40°59' E 013°30'1514.7
2016-Jul-23 12:33N 41°13' E 013°37'2 1.8
2016-Jul-23 11:34N 41°12' E 013°35'1515.0
2016-Jul-23 10:34N 41°04' E 013°18'1515.1
2016-Jul-23 09:33N 40°55' E 013°02'2 1.9
2016-Jul-23 08:34N 40°55' E 012°59'1514.7
2016-Jul-23 07:33N 41°03' E 013°16'1514.7
2016-Jul-23 06:33N 41°11' E 013°32'6 2.9
2016-Jul-23 04:33N 41°15' E 013°37'0 0.0
2016-Jul-23 03:33N 41°15' E 013°37'0 0.0
2016-Jul-23 02:33N 41°15' E 013°37'0 0.0
2016-Jul-23 01:33N 41°15' E 013°37'0 0.0
2016-Jul-23 00:33N 41°15' E 013°37'0 0.0
2016-Jul-22 23:33N 41°15' E 013°37'0 0.0
2016-Jul-22 22:33N 41°15' E 013°37'0 0.0
2016-Jul-22 21:33N 41°15' E 013°37'0 0.0
2016-Jul-22 20:33N 41°15' E 013°37'0 0.0
2016-Jul-22 19:33N 41°15' E 013°37'0 0.0
2016-Jul-22 18:33N 41°15' E 013°37'1212.4
2016-Jul-22 17:33N 41°07' E 013°25'1514.9
2016-Jul-22 16:33N 40°59' E 013°08'9 8.8
2016-Jul-22 15:31N 40°54' E 012°58'9 9.2
2016-Jul-22 14:33N 40°59' E 013°07'1414.5
2016-Jul-22 13:33N 41°07' E 013°23'1313.1
2016-Jul-22 12:33N 41°15' E 013°37'3 3.1
2016-Jul-22 11:34N 41°12' E 013°36'1515.0
2016-Jul-22 10:33N 41°04' E 013°18'1515.1
2016-Jul-22 09:33N 40°56' E 013°02'2 2.4
2016-Jul-22 08:33N 40°55' E 012°59'1414.5
2016-Jul-22 07:33N 41°03' E 013°15'2010.2
2016-Jul-22 05:33N 41°15' E 013°37'0 0.0
2016-Jul-22 04:33N 41°15' E 013°37'0 0.0
2016-Jul-22 03:33N 41°15' E 013°37'0 0.0
2016-Jul-22 02:33N 41°15' E 013°37'0 0.0
2016-Jul-22 01:33N 41°15' E 013°37'0 0.0
2016-Jul-22 00:33N 41°15' E 013°37'0 0.0
2016-Jul-21 23:32N 41°15' E 013°37'0 0.0
2016-Jul-21 22:33N 41°15' E 013°37'0 0.0
2016-Jul-21 21:33N 41°15' E 013°37'0 0.0
2016-Jul-21 20:33N 41°15' E 013°37'0 0.0
2016-Jul-21 19:33N 41°15' E 013°37'0 0.0
2016-Jul-21 18:33N 41°15' E 013°37'0 0.0
2016-Jul-21 17:33N 41°15' E 013°37'1313.5
2016-Jul-21 16:34N 41°02' E 013°32'1514.7
2016-Jul-21 15:32N 40°48' E 013°26'0 0.0
2016-Jul-21 14:33N 40°48' E 013°26'1313.0
2016-Jul-21 13:34N 41°00' E 013°31'1514.6
2016-Jul-21 12:33N 41°14' E 013°37'3 2.9
2016-Jul-21 11:33N 41°12' E 013°35'1515.0
2016-Jul-21 10:33N 41°03' E 013°19'1515.0
2016-Jul-21 09:34N 40°55' E 013°02'2 1.9
2016-Jul-21 08:33N 40°54' E 012°59'1814.7
2016-Jul-21 07:21N 41°04' E 013°19'1414.7
2016-Jul-21 06:25N 41°12' E 013°34'4 0.5
2016-Jul-20 21:33N 41°15' E 013°37'0 0.0
2016-Jul-20 20:33N 41°15' E 013°37'0 0.0
2016-Jul-20 19:33N 41°15' E 013°37'2 2.3
2016-Jul-20 18:34N 41°13' E 013°36'1414.5
2016-Jul-20 17:34N 41°04' E 013°21'1514.6
2016-Jul-20 16:33N 40°57' E 013°04'5 4.4
2016-Jul-20 15:25N 40°54' E 012°59'1214.1
2016-Jul-20 14:34N 41°01' E 013°12'1414.3
2016-Jul-20 13:34N 41°08' E 013°28'9 9.4
2016-Jul-20 12:33N 41°15' E 013°37'8 7.9
2016-Jul-20 11:33N 41°09' E 013°30'1514.6
2016-Jul-20 10:33N 41°01' E 013°14'1414.2
2016-Jul-20 09:33N 40°54' E 012°58'4 3.6
2016-Jul-20 08:33N 40°56' E 013°02'1414.0
2016-Jul-20 07:33N 41°03' E 013°17'19 6.1
2016-Jul-20 04:29N 41°15' E 013°37'0 0.0
2016-Jul-19 22:16N 41°15' E 013°37'0 0.0
2016-Jul-19 21:33N 41°15' E 013°37'0 0.0
2016-Jul-19 20:33N 41°15' E 013°37'0 0.0
2016-Jul-19 19:33N 41°15' E 013°37'0 0.0
2016-Jul-19 18:33N 41°15' E 013°37'1111.3
2016-Jul-19 17:34N 41°07' E 013°27'1614.7
2016-Jul-19 16:29N 40°59' E 013°09'10 9.4
2016-Jul-19 15:27N 40°54' E 012°58'1111.8
2016-Jul-19 14:33N 40°59' E 013°10'1414.1
2016-Jul-19 13:33N 41°07' E 013°25'1211.8
2016-Jul-19 12:33N 41°15' E 013°37'8 7.8
2016-Jul-19 11:33N 41°09' E 013°30'1515.0
2016-Jul-19 10:34N 41°01' E 013°14'7 3.6
2016-Jul-19 08:34N 40°57' E 013°05'30 4.8
2016-Jul-19 02:19N 41°15' E 013°37'0 0.0
2016-Jul-19 00:34N 41°15' E 013°37'0 0.0
2016-Jul-18 23:34N 41°15' E 013°37'0 0.0
2016-Jul-18 22:33N 41°15' E 013°37'0 0.0
2016-Jul-18 21:34N 41°15' E 013°37'0 0.0
2016-Jul-18 20:34N 41°15' E 013°37'0 0.0
2016-Jul-18 19:33N 41°15' E 013°37'0 0.0
2016-Jul-18 18:34N 41°15' E 013°37'4 4.1
2016-Jul-18 17:33N 41°11' E 013°36'1414.2
2016-Jul-18 16:34N 40°58' E 013°30'1010.3
2016-Jul-18 15:34N 40°48' E 013°26'0 0.0
2016-Jul-18 14:33N 40°48' E 013°26'1313.3
2016-Jul-18 13:34N 41°01' E 013°31'1514.7
2016-Jul-18 12:32N 41°15' E 013°37'5 5.1
2016-Jul-18 11:34N 41°11' E 013°33'1515.1
2016-Jul-18 10:34N 41°03' E 013°17'1515.1
2016-Jul-18 09:34N 40°55' E 012°60'2 2.3
2016-Jul-18 08:33N 40°56' E 013°02'1514.2
2016-Jul-18 07:32N 41°04' E 013°18'1614.0
2016-Jul-18 06:24N 41°12' E 013°36'3 3.4
2016-Jul-18 05:33N 41°15' E 013°37'0 0.0
2016-Jul-18 00:11N 41°15' E 013°37'19 2.5
2016-Jul-17 16:18N 40°57' E 013°30'  
Track history (hours):
 
Tides and Currents Weather Stations Pressure Air Temp Water Temp Dewpoint Dewpoint Depression Visibility Wind Speed Wind Dir Waves Ship Positions

Tetide

Last reported at 2016-Jul-24 22:06 UTC. Time now 2016-Jul-25 08:10 UTC.
Position N 41°15' E 013°37'.

Length 70 m; draft 3.6 m.

Type: Passenger vessel. MMSI: 247043100.

Date/timePositionNaut miles runAvg speedWind from/ knotsBaromVisibWave heightAir tempDewpointWater temp
2016-Jul-24 22:06N 41°15' E 013°37'0 0.0
2016-Jul-24 20:33N 41°15' E 013°37'0 0.0
2016-Jul-24 17:29N 41°15' E 013°37'1314.0
2016-Jul-24 16:34N 41°03' E 013°32'1514.9
2016-Jul-24 15:34N 40°48' E 013°26'1 0.4
2016-Jul-24 14:22N 40°48' E 013°26'1113.8
2016-Jul-24 13:34N 40°59' E 013°30'14 6.8
2016-Jul-24 11:33N 41°12' E 013°35'1914.6
2016-Jul-24 10:16N 41°02' E 013°14'1014.7
2016-Jul-24 09:33N 40°56' E 013°02'30 9.3
2016-Jul-24 06:16N 41°13' E 013°36'3 1.6
2016-Jul-24 04:34N 41°15' E 013°37'0 0.0
2016-Jul-24 03:34N 41°15' E 013°37'0 0.0
2016-Jul-24 02:33N 41°15' E 013°37'0 0.0
2016-Jul-23 22:11N 41°15' E 013°37'0 0.0
2016-Jul-23 21:34N 41°15' E 013°37'0 0.0
2016-Jul-23 20:33N 41°15' E 013°37'0 0.0
2016-Jul-23 19:32N 41°15' E 013°37'0 0.0
2016-Jul-23 18:33N 41°15' E 013°37'0 0.0
2016-Jul-23 17:33N 41°15' E 013°37'1313.0
2016-Jul-23 16:33N 41°03' E 013°32'1515.0
2016-Jul-23 15:34N 40°48' E 013°26'1 0.5
2016-Jul-23 14:33N 40°48' E 013°26'1211.9
2016-Jul-23 13:33N 40°59' E 013°30'1514.7
2016-Jul-23 12:33N 41°13' E 013°37'2 1.8
2016-Jul-23 11:34N 41°12' E 013°35'1515.0
2016-Jul-23 10:34N 41°04' E 013°18'1515.1
2016-Jul-23 09:33N 40°55' E 013°02'2 1.9
2016-Jul-23 08:34N 40°55' E 012°59'1514.7
2016-Jul-23 07:33N 41°03' E 013°16'1514.7
2016-Jul-23 06:33N 41°11' E 013°32'6 2.9
2016-Jul-23 04:33N 41°15' E 013°37'0 0.0
2016-Jul-23 03:33N 41°15' E 013°37'0 0.0
2016-Jul-23 02:33N 41°15' E 013°37'0 0.0
2016-Jul-23 01:33N 41°15' E 013°37'0 0.0
2016-Jul-23 00:33N 41°15' E 013°37'0 0.0
2016-Jul-22 23:33N 41°15' E 013°37'0 0.0
2016-Jul-22 22:33N 41°15' E 013°37'0 0.0
2016-Jul-22 21:33N 41°15' E 013°37'0 0.0
2016-Jul-22 20:33N 41°15' E 013°37'0 0.0
2016-Jul-22 19:33N 41°15' E 013°37'0 0.0
2016-Jul-22 18:33N 41°15' E 013°37'1212.4
2016-Jul-22 17:33N 41°07' E 013°25'1514.9
2016-Jul-22 16:33N 40°59' E 013°08'9 8.8
2016-Jul-22 15:31N 40°54' E 012°58'9 9.2
2016-Jul-22 14:33N 40°59' E 013°07'1414.5
2016-Jul-22 13:33N 41°07' E 013°23'1313.1
2016-Jul-22 12:33N 41°15' E 013°37'3 3.1
2016-Jul-22 11:34N 41°12' E 013°36'1515.0
2016-Jul-22 10:33N 41°04' E 013°18'1515.1
2016-Jul-22 09:33N 40°56' E 013°02'2 2.4
2016-Jul-22 08:33N 40°55' E 012°59'1414.5
2016-Jul-22 07:33N 41°03' E 013°15'2010.2
2016-Jul-22 05:33N 41°15' E 013°37'0 0.0
2016-Jul-22 04:33N 41°15' E 013°37'0 0.0
2016-Jul-22 03:33N 41°15' E 013°37'0 0.0
2016-Jul-22 02:33N 41°15' E 013°37'0 0.0
2016-Jul-22 01:33N 41°15' E 013°37'0 0.0
2016-Jul-22 00:33N 41°15' E 013°37'0 0.0
2016-Jul-21 23:32N 41°15' E 013°37'0 0.0
2016-Jul-21 22:33N 41°15' E 013°37'0 0.0
2016-Jul-21 21:33N 41°15' E 013°37'0 0.0
2016-Jul-21 20:33N 41°15' E 013°37'0 0.0
2016-Jul-21 19:33N 41°15' E 013°37'0 0.0
2016-Jul-21 18:33N 41°15' E 013°37'0 0.0
2016-Jul-21 17:33N 41°15' E 013°37'1313.5
2016-Jul-21 16:34N 41°02' E 013°32'1514.7
2016-Jul-21 15:32N 40°48' E 013°26'0 0.0
2016-Jul-21 14:33N 40°48' E 013°26'1313.0
2016-Jul-21 13:34N 41°00' E 013°31'1514.6
2016-Jul-21 12:33N 41°14' E 013°37'3 2.9
2016-Jul-21 11:33N 41°12' E 013°35'1515.0
2016-Jul-21 10:33N 41°03' E 013°19'1515.0
2016-Jul-21 09:34N 40°55' E 013°02'2 1.9
2016-Jul-21 08:33N 40°54' E 012°59'1814.7
2016-Jul-21 07:21N 41°04' E 013°19'1414.7
2016-Jul-21 06:25N 41°12' E 013°34'4 0.5
2016-Jul-20 21:33N 41°15' E 013°37'0 0.0
2016-Jul-20 20:33N 41°15' E 013°37'0 0.0
2016-Jul-20 19:33N 41°15' E 013°37'2 2.3
2016-Jul-20 18:34N 41°13' E 013°36'1414.5
2016-Jul-20 17:34N 41°04' E 013°21'1514.6
2016-Jul-20 16:33N 40°57' E 013°04'5 4.4
2016-Jul-20 15:25N 40°54' E 012°59'1214.1
2016-Jul-20 14:34N 41°01' E 013°12'1414.3
2016-Jul-20 13:34N 41°08' E 013°28'9 9.4
2016-Jul-20 12:33N 41°15' E 013°37'8 7.9
2016-Jul-20 11:33N 41°09' E 013°30'1514.6
2016-Jul-20 10:33N 41°01' E 013°14'1414.2
2016-Jul-20 09:33N 40°54' E 012°58'4 3.6
2016-Jul-20 08:33N 40°56' E 013°02'1414.0
2016-Jul-20 07:33N 41°03' E 013°17'19 6.1
2016-Jul-20 04:29N 41°15' E 013°37'0 0.0
2016-Jul-19 22:16N 41°15' E 013°37'0 0.0
2016-Jul-19 21:33N 41°15' E 013°37'0 0.0
2016-Jul-19 20:33N 41°15' E 013°37'0 0.0
2016-Jul-19 19:33N 41°15' E 013°37'0 0.0
2016-Jul-19 18:33N 41°15' E 013°37'1111.3
2016-Jul-19 17:34N 41°07' E 013°27'1614.7
2016-Jul-19 16:29N 40°59' E 013°09'10 9.4
2016-Jul-19 15:27N 40°54' E 012°58'1111.8
2016-Jul-19 14:33N 40°59' E 013°10'1414.1
2016-Jul-19 13:33N 41°07' E 013°25'1211.8
2016-Jul-19 12:33N 41°15' E 013°37'8 7.8
2016-Jul-19 11:33N 41°09' E 013°30'1515.0
2016-Jul-19 10:34N 41°01' E 013°14'7 3.6
2016-Jul-19 08:34N 40°57' E 013°05'30 4.8
2016-Jul-19 02:19N 41°15' E 013°37'0 0.0
2016-Jul-19 00:34N 41°15' E 013°37'0 0.0
2016-Jul-18 23:34N 41°15' E 013°37'0 0.0
2016-Jul-18 22:33N 41°15' E 013°37'0 0.0
2016-Jul-18 21:34N 41°15' E 013°37'0 0.0
2016-Jul-18 20:34N 41°15' E 013°37'0 0.0
2016-Jul-18 19:33N 41°15' E 013°37'0 0.0
2016-Jul-18 18:34N 41°15' E 013°37'4 4.1
2016-Jul-18 17:33N 41°11' E 013°36'1414.2
2016-Jul-18 16:34N 40°58' E 013°30'1010.3
2016-Jul-18 15:34N 40°48' E 013°26'0 0.0
2016-Jul-18 14:33N 40°48' E 013°26'1313.3
2016-Jul-18 13:34N 41°01' E 013°31'1514.7
2016-Jul-18 12:32N 41°15' E 013°37'5 5.1
2016-Jul-18 11:34N 41°11' E 013°33'1515.1
2016-Jul-18 10:34N 41°03' E 013°17'1515.1
2016-Jul-18 09:34N 40°55' E 012°60'2 2.3
2016-Jul-18 08:33N 40°56' E 013°02'1514.2
2016-Jul-18 07:32N 41°04' E 013°18'1614.0
2016-Jul-18 06:24N 41°12' E 013°36'3 3.4
2016-Jul-18 05:33N 41°15' E 013°37'0 0.0
2016-Jul-18 00:11N 41°15' E 013°37'19 2.5
2016-Jul-17 16:18N 40°57' E 013°30'  

Dump ship's entire track history